• Join FlightAware (Why Join?)
  • Login
  • US Flag 
07:02PM EST


 

Airport Tracker/Info


-or-


 

Live Flight TrackerFlight Track Log ✈ SWA3321 ✈ 15-Apr-2013 ✈ KMCO - KMHT

Flight Track Log - Related Links

Times and Time Zones

All times are in EDT time to prevent confusion due to time zone crossing. See the SWA3321 flight status page for this flight to view local times or setup timezone preferences in your user account.

Time Position Orientation Groundspeed Altitude Reporting Facility
EDT Latitude Longitude Course Direction KTS MPH feet Rate Location/Type
12:32PM 28.4000 -81.3000 156° South 164 189 800  Level Orlando TRACON
12:33PM 28.3667 -81.2833 156° South 204 235 2,300 1,740 Climbing Orlando TRACON
12:33PM 28.3167 -81.2500 150° Southeast 233 268 3,800 1,800 Climbing Orlando TRACON
12:34PM 28.2833 -81.2000 127° Southeast 243 280 5,800 2,340 Climbing Orlando TRACON
12:36PM 28.3500 -81.1667 24° Northeast 279 321 9,000 2,520 Climbing Orlando TRACON
12:37PM 28.4167 -81.2000 336° Northwest 314 361 11,100 2,580 Climbing Orlando TRACON
12:39PM 28.6300 -81.2558 347° North 373 429 17,400 2,700 Climbing Jacksonville Center
12:40PM 28.7306 -81.2850 346° North 373 429 20,000 2,460 Climbing Jacksonville Center
12:41PM 28.8372 -81.3142 347° North 379 436 22,300 1,500 Climbing Jacksonville Center
12:42PM 28.9442 -81.3481 345° North 385 443 23,000 300 Climbing Jacksonville Center
12:43PM 29.0550 -81.3772 347° North 390 449 23,000 900 Level Jacksonville Center
12:44PM 29.1681 -81.3944 352° North 396 456 24,800 1,800 Climbing Jacksonville Center
12:45PM 29.2831 -81.4069 355° North 406 467 26,600 1,800 Climbing Jacksonville Center
12:46PM 29.4125 -81.4242 353° North 417 480 28,500 1,740 Climbing Jacksonville Center
12:47PM 29.5239 -81.4772 337° Northwest 422 486 30,100 1,560 Climbing Jacksonville Center
12:48PM 29.6372 -81.5331 337° Northwest 433 498 31,700 1,440 Climbing Jacksonville Center
12:49PM 29.7506 -81.5864 338° Northwest 438 504 33,100 1,560 Climbing Jacksonville Center
12:50PM 29.8678 -81.6375 339° North 438 504 34,900 1,860 Climbing Jacksonville Center
12:51PM 29.9789 -81.6842 340° North 438 504 36,900 1,620 Climbing Jacksonville Center
12:52PM 30.1019 -81.6753 North 425 489 38,200 1,020 Climbing Jacksonville Center
12:53PM 30.2269 -81.6425 13° North 432 497 39,000 360 Climbing Jacksonville Center
12:54PM 30.3519 -81.6144 11° North 444 511 39,000  Level Jacksonville Center
12:55PM 30.4789 -81.5836 12° North 450 518 39,000  Level Jacksonville Center
12:56PM 30.6042 -81.5578 10° North 455 524 39,000  Level Jacksonville Center
12:57PM 30.7144 -81.5322 11° North 450 518 39,000  Level Jacksonville Center
12:58PM 30.8372 -81.5061 10° North 450 518 39,000  Level Jacksonville Center
12:59PM 30.9603 -81.4778 11° North 450 518 39,000  Level Jacksonville Center
01:00PM 31.0811 -81.4517 10° North 450 518 39,000  Level Jacksonville Center
01:01PM 31.2017 -81.4231 11° North 445 512 39,000  Level Jacksonville Center
01:02PM 31.3222 -81.3750 19° North 445 512 39,000  Level Jacksonville Center
01:03PM 31.4467 -81.2975 28° Northeast 451 519 39,000  Level Jacksonville Center
01:04PM 31.5525 -81.2397 25° Northeast 462 532 39,000  Level Jacksonville Center
01:05PM 31.6808 -81.1667 26° Northeast 462 532 39,000  Level Jacksonville Center
01:06PM 31.7947 -81.1008 26° Northeast 462 532 39,000  Level Jacksonville Center
01:07PM 31.9025 -81.0375 27° Northeast 463 533 39,000  Level Jacksonville Center
01:08PM 32.0328 -80.9614 26° Northeast 463 533 39,000  Level Jacksonville Center
01:09PM 32.1383 -80.9053 24° Northeast 463 533 39,000  Level Jacksonville Center
01:10PM 32.2689 -80.8311 26° Northeast 458 527 39,000  Level Jacksonville Center
01:11PM 32.3825 -80.7647 26° Northeast 458 527 39,000  Level Jacksonville Center
01:12PM 32.4983 -80.6956 27° Northeast 466 536 39,000  Level Jacksonville Center
01:13PM 32.6139 -80.6261 27° Northeast 459 528 39,000  Level Jacksonville Center
01:14PM 32.7294 -80.5589 26° Northeast 464 534 39,000  Level Jacksonville Center
01:15PM 32.8472 -80.4917 26° Northeast 464 534 39,000  Level Jacksonville Center
01:16PM 32.9608 -80.4267 26° Northeast 458 527 39,000  Level Jacksonville Center
01:17PM 33.0761 -80.3517 29° Northeast 463 533 39,000  Level Jacksonville Center
01:18PM 33.1814 -80.2917 25° Northeast 468 539 39,000  Level Jacksonville Center
01:19PM 33.3133 -80.2156 26° Northeast 468 539 39,000  Level Jacksonville Center
01:20PM 33.4289 -80.1475 26° Northeast 461 531 39,000  Level Jacksonville Center
01:21PM 33.5442 -80.0767 27° Northeast 461 531 39,000  Level Jacksonville Center
01:22PM 33.6367 -80.0214 26° Northeast 461 531 39,000  Level Jacksonville Center
01:23PM 33.7500 -79.9528 27° Northeast 461 531 39,000  Level Jacksonville Center
01:24PM 33.8756 -79.8758 27° Northeast 461 531 39,000  Level Jacksonville Center
01:25PM 33.9928 -79.8042 27° Northeast 461 531 39,000  Level Jacksonville Center
01:27PM 34.2214 -79.6681 26° Northeast 460 529 39,000  Level Washington Center
01:28PM 34.3297 -79.6081 25° Northeast 460 529 39,000  Level Washington Center
01:29PM 34.4467 -79.5458 24° Northeast 460 529 39,000  Level Washington Center
01:30PM 34.5633 -79.4858 23° Northeast 454 522 39,000  Level Washington Center
01:31PM 34.6822 -79.4233 23° Northeast 454 522 39,000  Level Washington Center
01:32PM 34.7989 -79.3631 23° Northeast 454 522 39,000  Level Washington Center
01:33PM 34.9156 -79.3000 24° Northeast 454 522 39,000  Level Washington Center
01:34PM 35.0344 -79.2369 23° Northeast 454 522 39,000  Level Washington Center
01:35PM 35.1489 -79.1786 23° Northeast 448 516 39,000  Level Washington Center
01:36PM 35.2653 -79.1153 24° Northeast 448 516 39,000  Level Washington Center
01:37PM 35.3842 -79.0517 24° Northeast 448 516 39,000  Level Washington Center
01:38PM 35.5008 -78.9878 24° Northeast 448 516 39,000  Level Washington Center
01:39PM 35.6192 -78.9264 23° Northeast 448 516 39,000  Level Washington Center
01:40PM 35.7336 -78.8622 24° Northeast 448 516 39,000  Level Washington Center
01:41PM 35.8586 -78.7956 23° Northeast 448 516 39,000  Level Washington Center
01:42PM 35.9653 -78.7075 34° Northeast 449 517 39,000  Level Washington Center
01:43PM 36.0719 -78.6142 35° Northeast 455 524 39,000  Level Washington Center
01:44PM 36.1767 -78.5203 36° Northeast 460 529 39,000  Level Washington Center
01:45PM 36.2811 -78.4289 35° Northeast 460 529 39,000  Level Washington Center
01:46PM 36.3875 -78.3347 35° Northeast 460 529 39,000  Level Washington Center
01:47PM 36.4919 -78.2403 36° Northeast 460 529 39,000  Level Washington Center
01:48PM 36.5961 -78.1481 35° Northeast 460 529 39,000  Level Washington Center
01:49PM 36.6961 -78.0528 37° Northeast 451 519 39,000  Level Washington Center
01:50PM 36.8003 -77.9603 35° Northeast 451 519 39,000  Level Washington Center
01:51PM 36.8964 -77.8539 42° Northeast 457 526 39,000  Level Washington Center
01:52PM 36.9717 -77.7211 55° Northeast 457 526 39,000  Level Washington Center
01:53PM 37.0511 -77.5906 53° Northeast 462 532 39,000  Level Washington Center
01:54PM 37.1200 -77.4672 55° Northeast 469 540 39,000  Level Washington Center
01:55PM 37.1969 -77.3389 53° Northeast 469 540 39,000  Level Washington Center
01:56PM 37.2739 -77.2100 53° Northeast 469 540 39,000  Level Washington Center
01:57PM 37.3756 -77.0814 45° Northeast 474 545 39,000  Level Washington Center
01:58PM 37.4725 -77.0075 31° Northeast 460 529 39,000  Level Washington Center
01:59PM 37.5944 -76.9181 30° Northeast 460 529 39,000  Level Washington Center
02:00PM 37.7036 -76.8386 30° Northeast 454 522 39,000  Level Washington Center
02:01PM 37.8108 -76.7589 30° Northeast 449 517 39,000  Level Washington Center
02:02PM 37.9200 -76.6764 31° Northeast 449 517 39,000  Level Washington Center
02:03PM 38.0272 -76.5961 31° Northeast 449 517 39,000  Level Washington Center
02:04PM 38.1364 -76.5158 30° Northeast 449 517 39,000  Level Washington Center
02:05PM 38.2411 -76.4325 32° Northeast 449 517 39,000  Level Washington Center
02:06PM 38.3375 -76.3542 33° Northeast 449 517 39,000  Level Washington Center
02:07PM 38.4528 -76.2492 35° Northeast 455 524 39,000  Level Washington Center
02:08PM 38.5556 -76.1519 36° Northeast 460 529 39,000  Level Washington Center
02:09PM 38.6603 -76.0594 35° Northeast 460 529 39,000  Level Washington Center
02:10PM 38.7628 -75.9617 37° Northeast 460 529 39,000  Level Washington Center
02:11PM 38.8672 -75.8636 36° Northeast 460 529 39,000  Level Washington Center
02:12PM 38.9694 -75.7678 36° Northeast 460 529 39,000  Level Washington Center
02:13PM 39.0717 -75.6692 37° Northeast 460 529 39,000  Level Washington Center
02:14PM 39.1717 -75.5728 37° Northeast 460 529 39,000  Level Washington Center
02:15PM 39.2717 -75.4789 36° Northeast 460 529 39,000 -300 Level Washington Center
02:16PM 39.3758 -75.3956 32° Northeast 448 516 38,400 -780 Descending Washington Center
02:17PM 39.4819 -75.3361 23° Northeast 428 493 37,500 -720 Descending Washington Center
02:18PM 39.5861 -75.2819 22° Northeast 414 476 37,000 -300 Descending Washington Center
02:19PM 39.6964 -75.2219 23° Northeast 409 471 37,000  Level Washington Center
02:20PM 39.8025 -75.1675 22° Northeast 414 476 37,000  Level Washington Center
02:20PM 39.8750 -75.1178 28° Northeast 412 474 37,000  Level New York Center
02:21PM 39.9897 -75.0625 20° North 425 489 37,000  Level New York Center
02:23PM 40.0961 -74.9986 25° Northeast 425 489 37,000 -60 Level New York Center
02:23PM 40.2006 -74.9369 24° Northeast 418 481 36,900 -600 Descending New York Center
02:24PM 40.3108 -74.8836 20° North 413 475 35,900 -1,020 Descending New York Center
02:25PM 40.4186 -74.8383 18° North 413 475 34,900 -480 Descending New York Center
02:26PM 40.5308 -74.7875 19° North 413 475 35,000  Climbing New York Center
02:27PM 40.6386 -74.7447 17° North 408 470 35,000  Level New York Center
02:29PM 40.7464 -74.6961 19° North 408 470 35,000  Level New York Center
02:31PM 41.0381 -74.5672 18° North 407 468 35,000  Level Boston Center
02:32PM 41.1433 -74.5211 18° North 402 463 35,000  Level Boston Center
02:33PM 41.2483 -74.4775 17° North 397 457 35,000  Level Boston Center
02:34PM 41.3531 -74.4367 16° North 392 451 35,000  Level Boston Center
02:35PM 41.4708 -74.3822 19° North 392 451 35,000 -120 Level Boston Center
02:36PM 41.5633 -74.3406 19° North 387 445 34,800 -600 Descending Boston Center
02:37PM 41.6744 -74.2911 18° North 397 457 33,800 -1,320 Descending Boston Center
02:38PM 41.7858 -74.2414 18° North 409 471 32,200 -1,560 Descending Boston Center
02:39PM 41.8972 -74.1889 19° North 414 476 30,800 -1,200 Descending Boston Center
02:40PM 41.9783 -74.0628 49° Northeast 420 483 29,800 -900 Descending Boston Center
02:41PM 42.0469 -73.9219 57° Northeast 420 483 29,000 -420 Descending Boston Center
02:42PM 42.1131 -73.7864 57° Northeast 436 502 29,000  Level Boston Center
02:43PM 42.2083 -73.6678 43° Northeast 441 507 29,000 -660 Level Boston Center
02:44PM 42.3053 -73.5658 38° Northeast 441 507 27,800 -1,800 Descending Boston Center
02:45PM 42.3978 -73.4747 36° Northeast 430 495 25,600 -1,620 Descending Boston Center
02:46PM 42.4614 -73.3350 58° Northeast 414 476 24,600 -1,020 Descending Boston Center
02:47PM 42.5106 -73.1864 66° East 420 483 23,600 -1,020 Descending Boston Center
02:48PM 42.5550 -73.0403 68° East 406 467 22,600 -1,020 Descending Boston Center
02:49PM 42.5994 -72.8997 67° East 406 467 21,600 -1,320 Descending Boston Center
02:50PM 42.6356 -72.7561 71° East 406 467 20,100 -1,800 Descending Boston Center
02:51PM 42.6711 -72.6122 71° East 390 449 18,100 -1,920 Descending Boston Center
02:52PM 42.7025 -72.4769 72° East 381 438 16,300 -1,980 Descending Boston Center
02:53PM 42.7317 -72.3439 73° East 375 432 14,200 -2,040 Descending Boston Center
02:54PM 42.7544 -72.2253 75° East 365 420 12,300 -1,920 Descending Boston Center
02:55PM 42.7875 -72.0864 72° East 353 406 10,400 -1,260 Descending Boston Center
02:56PM 42.8081 -71.9872 74° East 325 374 9,800 -900 Descending Boston Center
02:57PM 42.8472 -71.8794 64° Northeast 289 333 8,600 -1,320 Descending Boston Center
02:58PM 42.8800 -71.7997 61° Northeast 266 306 7,300 -1,500 Descending Boston Center
02:59PM 42.9233 -71.7028 59° Northeast 261 300 5,700 -1,380 Descending Boston Center
03:00PM 42.9603 -71.6317 55° Northeast 267 307 4,600 -960 Descending Boston Center
03:01PM 43.0033 -71.5431 56° Northeast 255 293 3,900 -720 Descending Boston Center
03:02PM 43.0300 -71.4828 59° Northeast 224 258 3,300 -960 Descending Boston Center
03:03PM 43.0086 -71.4264 117° Southeast 158 182 2,000 -960 Descending Boston Center
03:04PM 42.9814 -71.3986 143° Southeast 136 157 1,400 -840 Descending Boston Center
03:05PM 42.9461 -71.4275 211° Southwest 122 140 400 -540 Descending Boston Center
03:06PM 42.9169 -71.4253 177° South 122 140 400 9,360 Level Boston Center
03:07PM 42.8856 -71.4314 188° South 122 140 19,000 9,120 Climbing Boston Center
03:08PM 42.8544 -71.4403 192° South 122 140 19,000  Level Boston Center
03:10PM 42.9167 -71.4333 316° Northwest  Level FlightAware Approximate
03:17PM 42.9328 -71.4358 316° Northwest  Level Estimated
03:18PM 42.9328 -71.4358 316° Northwest  Level Estimated
03:19PM 42.9328 -71.4358 316° Northwest  Level Estimated
03:20PM 42.9328 -71.4358 316° Northwest  Level Estimated
03:21PM 42.9328 -71.4358 316° Northwest  Level Estimated